Time;durP1;ratioP1;P1;durP2;ratioP2;P2;SDS_P1;SDS_P2;PMS_P1;PMS_P2;Temp;Humidity;BMP_temperature;BMP_pressure;BME280_temperature;BME280_humidity;BME280_pressure;Samples;Min_cycle;Max_cycle;Signal;HPM_P1;HPM_P2
2022/03/27 00:00:28;;;;;;;0.30;0.30;;;5.90;99.90;;;;;;4995203;28;20548;-72
2022/03/27 00:02:54;;;;;;;0.20;0.20;;;5.90;99.90;;;;;;4995182;28;20473;-72
2022/03/27 00:05:20;;;;;;;0.40;0.40;;;5.90;99.90;;;;;;4994766;28;20492;-72
2022/03/27 00:07:45;;;;;;;0.30;0.30;;;5.80;99.90;;;;;;4994696;28;20041;-72
2022/03/27 00:10:11;;;;;;;0.50;0.50;;;5.90;99.90;;;;;;5011370;28;20164;-72
2022/03/27 00:12:37;;;;;;;0.30;0.30;;;5.90;99.90;;;;;;4995017;28;20072;-72
2022/03/27 00:15:04;;;;;;;0.30;0.30;;;5.90;99.90;;;;;;5010859;28;20067;-72
2022/03/27 00:17:32;;;;;;;0.22;0.22;;;5.90;99.90;;;;;;4994751;28;20580;-72
2022/03/27 00:20:02;;;;;;;0.22;0.22;;;6.00;99.90;;;;;;5010797;28;20531;-72
2022/03/27 00:22:28;;;;;;;0.30;0.30;;;6.00;99.90;;;;;;5009209;28;20041;-72
2022/03/27 00:24:53;;;;;;;0.30;0.30;;;6.10;99.90;;;;;;4991036;28;20846;-72
2022/03/27 00:27:19;;;;;;;0.43;0.43;;;6.10;99.90;;;;;;4991185;28;20120;-72
2022/03/27 00:29:44;;;;;;;1.05;1.00;;;6.10;99.90;;;;;;4992130;28;20490;-72
2022/03/27 00:32:11;;;;;;;1.02;0.95;;;6.20;99.90;;;;;;4988359;28;20061;-72
2022/03/27 00:34:36;;;;;;;0.30;0.30;;;6.10;99.90;;;;;;5007531;28;20080;-72
2022/03/27 00:37:02;;;;;;;0.30;0.30;;;6.20;99.90;;;;;;5007839;28;20046;-72
2022/03/27 00:39:28;;;;;;;1.48;0.93;;;6.20;99.90;;;;;;5007055;28;20088;-72
2022/03/27 00:41:54;;;;;;;0.60;0.60;;;6.20;99.90;;;;;;5007043;28;20542;-72
2022/03/27 00:44:20;;;;;;;0.30;0.30;;;6.30;99.90;;;;;;4990308;28;20033;-72
2022/03/27 00:46:46;;;;;;;0.30;0.30;;;6.30;99.90;;;;;;4991010;28;20461;-72
2022/03/27 00:49:11;;;;;;;0.70;0.70;;;6.30;99.90;;;;;;4994292;28;20593;-72
2022/03/27 00:51:37;;;;;;;0.43;0.43;;;6.30;99.90;;;;;;4991480;28;20140;-72
2022/03/27 00:54:04;;;;;;;0.20;0.20;;;6.30;99.90;;;;;;4991156;28;20133;-72
2022/03/27 00:56:30;;;;;;;0.40;0.40;;;6.40;99.90;;;;;;5007108;28;20057;-72
2022/03/27 00:58:55;;;;;;;0.20;0.20;;;6.40;99.90;;;;;;4991089;28;20045;-72
2022/03/27 01:01:26;;;;;;;1.00;1.00;;;6.40;99.90;;;;;;4990515;28;20044;-72
2022/03/27 01:03:55;;;;;;;0.30;0.30;;;6.40;99.90;;;;;;5006963;28;20046;-72
2022/03/27 01:06:41;;;;;;;0.38;0.38;;;6.40;99.90;;;;;;4990634;28;20096;-72
2022/03/27 01:11:54;;;;;;;0.30;0.30;;;6.50;99.90;;;;;;5007168;28;20049;-71
2022/03/27 01:14:33;;;;;;;0.30;0.30;;;6.50;99.90;;;;;;5004692;28;20083;-71
2022/03/27 01:17:08;;;;;;;0.28;0.28;;;6.50;99.90;;;;;;5007300;28;20050;-71
2022/03/27 01:19:34;;;;;;;10.13;0.68;;;6.50;99.90;;;;;;5024951;28;20042;-71
2022/03/27 01:22:00;;;;;;;0.40;0.40;;;6.50;99.90;;;;;;4994663;28;20038;-72
2022/03/27 01:24:26;;;;;;;0.30;0.30;;;6.50;99.90;;;;;;5010648;28;20061;-72
2022/03/27 01:26:52;;;;;;;0.30;0.30;;;6.50;99.90;;;;;;5010962;28;20049;-72
2022/03/27 01:29:18;;;;;;;0.52;0.52;;;6.40;99.90;;;;;;5010310;28;20035;-72
2022/03/27 01:31:45;;;;;;;0.20;0.20;;;6.50;99.90;;;;;;5010876;28;20042;-72
2022/03/27 01:34:11;;;;;;;0.30;0.30;;;6.50;99.90;;;;;;5010415;28;20045;-72
2022/03/27 01:36:37;;;;;;;0.30;0.30;;;6.40;99.90;;;;;;5011091;28;20041;-72
2022/03/27 01:39:11;;;;;;;0.28;0.28;;;6.50;99.90;;;;;;4994884;28;20506;-72
2022/03/27 01:41:38;;;;;;;0.30;0.30;;;6.50;99.90;;;;;;5026120;28;20052;-72
2022/03/27 01:44:06;;;;;;;0.30;0.30;;;6.50;99.90;;;;;;5011214;28;20081;-72
2022/03/27 01:46:34;;;;;;;0.30;0.30;;;6.50;99.90;;;;;;4994773;28;20053;-72
2022/03/27 01:49:00;;;;;;;0.30;0.30;;;6.50;99.90;;;;;;4993716;28;20521;-72
2022/03/27 01:51:27;;;;;;;0.40;0.40;;;6.50;99.90;;;;;;5010579;28;20081;-72
2022/03/27 01:53:53;;;;;;;0.40;0.40;;;6.50;99.90;;;;;;5010771;28;20042;-72
2022/03/27 01:56:19;;;;;;;2.20;1.05;;;6.50;99.90;;;;;;5007337;28;20575;-72
2022/03/27 01:58:45;;;;;;;0.35;0.35;;;6.50;99.90;;;;;;5001861;28;20042;-72
2022/03/27 02:01:10;;;;;;;7.03;1.20;;;6.50;99.90;;;;;;4993923;28;20494;-72
2022/03/27 02:03:36;;;;;;;1.30;1.20;;;6.50;99.90;;;;;;4994042;28;20405;-72
2022/03/27 02:06:05;;;;;;;1.23;1.10;;;6.50;99.90;;;;;;5010178;28;20125;-72
2022/03/27 02:08:34;;;;;;;1.13;1.02;;;6.50;99.90;;;;;;4994023;28;20443;-72
2022/03/27 02:11:01;;;;;;;0.50;0.50;;;6.50;99.90;;;;;;4993136;28;20042;-71
2022/03/27 02:13:27;;;;;;;1.38;1.02;;;6.40;99.90;;;;;;5009929;28;20041;-72
2022/03/27 02:15:55;;;;;;;0.52;0.52;;;6.40;99.90;;;;;;5005398;28;20037;-72
2022/03/27 02:18:21;;;;;;;0.55;0.55;;;6.40;99.90;;;;;;4993814;28;20413;-72
2022/03/27 02:20:48;;;;;;;0.50;0.50;;;6.40;99.90;;;;;;5010137;28;20049;-72
2022/03/27 02:23:13;;;;;;;0.30;0.30;;;6.40;99.90;;;;;;4993249;28;20045;-72
2022/03/27 02:25:40;;;;;;;0.50;0.50;;;6.40;99.90;;;;;;4993455;28;20057;-72
2022/03/27 02:28:06;;;;;;;0.50;0.50;;;6.40;99.90;;;;;;5008879;28;20148;-72
2022/03/27 02:30:32;;;;;;;0.30;0.30;;;6.50;99.90;;;;;;5010131;28;20488;-72
2022/03/27 02:32:58;;;;;;;0.50;0.50;;;6.50;99.90;;;;;;5009797;28;20042;-72
2022/03/27 02:35:23;;;;;;;0.68;0.68;;;6.50;99.90;;;;;;4992915;28;20068;-72
2022/03/27 02:37:49;;;;;;;2.55;1.30;;;6.50;99.90;;;;;;4993015;28;20038;-72
2022/03/27 02:40:15;;;;;;;5.72;1.15;;;6.50;99.90;;;;;;4993161;28;20045;-72
2022/03/27 02:42:41;;;;;;;0.70;0.70;;;6.50;99.90;;;;;;5009110;28;20046;-72
2022/03/27 02:45:07;;;;;;;0.52;0.52;;;6.50;99.90;;;;;;5009832;28;20496;-72
2022/03/27 02:47:33;;;;;;;1.55;1.38;;;6.50;99.90;;;;;;4978303;28;20046;-72
2022/03/27 02:49:59;;;;;;;1.75;1.17;;;6.50;99.90;;;;;;4997475;28;20532;-72
2022/03/27 02:52:25;;;;;;;0.65;0.65;;;6.50;99.90;;;;;;4994053;28;20034;-72
2022/03/27 02:54:51;;;;;;;0.43;0.43;;;6.50;99.90;;;;;;5009018;28;20528;-72
2022/03/27 02:57:16;;;;;;;0.88;0.88;;;6.50;99.90;;;;;;5009790;28;20030;-72
2022/03/27 02:59:43;;;;;;;1.27;1.27;;;6.50;99.90;;;;;;4992818;28;20655;-72
2022/03/27 03:02:09;;;;;;;0.20;0.20;;;6.50;99.90;;;;;;5007836;28;20080;-73
2022/03/27 03:04:34;;;;;;;1.85;1.23;;;6.50;99.90;;;;;;4992805;28;20066;-73
2022/03/27 03:07:01;;;;;;;2.78;0.80;;;6.40;99.90;;;;;;4992973;28;20049;-73
2022/03/27 03:09:26;;;;;;;1.33;0.82;;;6.40;99.90;;;;;;5009142;28;20048;-73
2022/03/27 03:11:52;;;;;;;0.80;0.80;;;6.40;99.90;;;;;;5008542;28;20410;-73
2022/03/27 03:14:18;;;;;;;1.08;1.08;;;6.20;99.90;;;;;;5009150;28;20046;-73
2022/03/27 03:16:46;;;;;;;0.80;0.80;;;6.10;99.90;;;;;;5007988;28;20054;-73
2022/03/27 03:19:12;;;;;;;0.30;0.30;;;6.00;99.90;;;;;;4992213;28;20048;-73
2022/03/27 03:21:38;;;;;;;0.80;0.80;;;5.90;99.90;;;;;;5009404;28;20050;-73
2022/03/27 03:24:05;;;;;;;0.60;0.60;;;5.90;99.90;;;;;;5010367;28;20042;-73
2022/03/27 03:26:30;;;;;;;0.80;0.80;;;5.80;99.90;;;;;;5007539;28;20626;-73
2022/03/27 03:28:56;;;;;;;1.00;1.00;;;5.70;99.90;;;;;;4991881;28;20041;-73
2022/03/27 03:31:22;;;;;;;0.40;0.40;;;5.60;99.90;;;;;;4994354;28;20037;-73
2022/03/27 03:33:48;;;;;;;0.30;0.30;;;5.60;99.90;;;;;;5011316;28;20498;-73
2022/03/27 03:36:15;;;;;;;3.30;1.15;;;5.50;99.90;;;;;;5011293;28;20129;-73
2022/03/27 03:38:41;;;;;;;0.35;0.35;;;5.40;99.90;;;;;;5011099;28;20402;-73
2022/03/27 03:41:08;;;;;;;0.30;0.30;;;5.30;99.90;;;;;;5011777;28;20547;-73
2022/03/27 03:43:36;;;;;;;0.30;0.30;;;5.20;99.90;;;;;;5011887;28;20056;-73
2022/03/27 03:46:02;;;;;;;0.30;0.30;;;5.10;99.90;;;;;;4995160;28;20045;-73
2022/03/27 03:48:28;;;;;;;0.40;0.40;;;5.00;99.90;;;;;;5027587;28;20045;-73
2022/03/27 03:50:54;;;;;;;0.30;0.30;;;4.90;99.90;;;;;;5011964;28;20386;-73
2022/03/27 03:53:19;;;;;;;0.32;0.32;;;4.90;99.90;;;;;;4980525;28;20596;-73
2022/03/27 03:55:45;;;;;;;0.40;0.40;;;4.80;99.90;;;;;;4993349;28;20037;-73
2022/03/27 03:58:10;;;;;;;0.30;0.30;;;4.80;99.90;;;;;;5011397;28;20048;-73
2022/03/27 04:00:36;;;;;;;0.63;0.63;;;4.70;99.90;;;;;;4995243;28;20040;-73
2022/03/27 04:03:02;;;;;;;0.30;0.30;;;4.70;99.90;;;;;;5011181;28;20081;-73
2022/03/27 04:05:28;;;;;;;0.40;0.40;;;4.60;99.90;;;;;;5011677;28;20048;-77
2022/03/27 04:07:54;;;;;;;0.30;0.30;;;4.60;99.90;;;;;;5026997;28;20045;-73
2022/03/27 04:10:20;;;;;;;0.30;0.30;;;4.50;99.90;;;;;;4994989;28;20520;-73
2022/03/27 04:12:46;;;;;;;0.30;0.30;;;4.50;99.90;;;;;;5011410;28;20124;-73
2022/03/27 04:15:11;;;;;;;0.68;0.68;;;4.40;99.90;;;;;;5011103;28;20179;-73
2022/03/27 04:17:47;;;;;;;0.35;0.35;;;4.40;99.90;;;;;;4990612;28;20037;-73
2022/03/27 04:20:13;;;;;;;0.40;0.40;;;4.40;99.90;;;;;;5011651;28;20060;-73
2022/03/27 04:22:43;;;;;;;0.40;0.40;;;4.30;99.90;;;;;;5011596;28;20118;-73
2022/03/27 04:25:11;;;;;;;0.38;0.38;;;4.30;99.90;;;;;;4993866;28;20248;-73
2022/03/27 04:27:37;;;;;;;0.40;0.40;;;4.20;99.90;;;;;;5010844;28;20454;-73
2022/03/27 04:30:04;;;;;;;0.40;0.40;;;4.10;99.90;;;;;;5011096;28;20064;-73
2022/03/27 04:32:30;;;;;;;0.30;0.30;;;4.10;99.90;;;;;;5001400;28;20077;-72
2022/03/27 04:34:56;;;;;;;0.40;0.40;;;4.00;99.90;;;;;;5026042;28;20150;-73
2022/03/27 04:37:22;;;;;;;1.42;1.35;;;4.00;99.90;;;;;;5025116;28;20037;-73
2022/03/27 04:39:47;;;;;;;0.88;0.88;;;3.90;99.90;;;;;;5010846;28;20037;-73
2022/03/27 04:42:13;;;;;;;0.70;0.70;;;3.90;99.90;;;;;;5011339;28;20496;-72
2022/03/27 04:44:39;;;;;;;0.40;0.40;;;3.90;99.90;;;;;;5010127;28;20095;-73
2022/03/27 04:47:06;;;;;;;10.05;1.58;;;3.90;99.90;;;;;;4994182;28;20045;-73
2022/03/27 04:49:32;;;;;;;0.47;0.47;;;3.90;99.90;;;;;;5011174;28;20554;-73
2022/03/27 04:51:58;;;;;;;0.40;0.40;;;3.90;99.90;;;;;;5010742;28;20204;-73
2022/03/27 04:54:24;;;;;;;0.40;0.40;;;3.90;99.90;;;;;;5010472;28;20037;-72
2022/03/27 04:56:50;;;;;;;0.40;0.40;;;3.80;99.90;;;;;;5009612;28;20051;-73
2022/03/27 04:59:16;;;;;;;0.40;0.40;;;3.80;99.90;;;;;;4990979;28;20468;-72
2022/03/27 05:01:42;;;;;;;0.40;0.40;;;3.80;99.90;;;;;;5025742;28;20041;-72
2022/03/27 05:04:09;;;;;;;0.30;0.30;;;3.70;99.90;;;;;;5007812;28;20596;-73
2022/03/27 05:06:34;;;;;;;0.75;0.75;;;3.70;99.90;;;;;;5006918;28;20456;-73
2022/03/27 05:09:00;;;;;;;0.82;0.82;;;3.70;99.90;;;;;;5000386;28;20041;-73
2022/03/27 05:11:28;;;;;;;0.50;0.50;;;3.70;99.90;;;;;;5010621;28;20064;-73
2022/03/27 05:13:54;;;;;;;0.50;0.50;;;3.70;99.90;;;;;;5011321;28;20052;-72
2022/03/27 05:16:20;;;;;;;0.95;0.95;;;3.70;99.90;;;;;;4994047;28;20049;-72
2022/03/27 05:18:46;;;;;;;6.75;3.70;;;3.70;99.90;;;;;;5007640;28;20095;-73
2022/03/27 05:21:11;;;;;;;0.50;0.50;;;3.70;99.90;;;;;;5005208;28;20068;-73
2022/03/27 05:23:37;;;;;;;0.38;0.38;;;3.70;99.90;;;;;;5009911;28;20056;-73
2022/03/27 05:26:03;;;;;;;0.50;0.50;;;3.70;99.90;;;;;;4990590;28;20089;-72
2022/03/27 05:28:30;;;;;;;0.90;0.90;;;3.70;99.90;;;;;;5006047;28;20191;-72
2022/03/27 05:30:56;;;;;;;0.40;0.40;;;3.60;99.90;;;;;;5007157;28;20041;-73
2022/03/27 05:33:22;;;;;;;0.40;0.40;;;3.60;99.90;;;;;;5007184;28;20046;-73
2022/03/27 05:35:49;;;;;;;0.40;0.40;;;3.60;99.90;;;;;;5006615;28;20060;-72
2022/03/27 05:38:14;;;;;;;0.40;0.40;;;3.60;99.90;;;;;;5007098;28;20393;-72
2022/03/27 05:40:40;;;;;;;0.50;0.50;;;3.50;99.90;;;;;;5006754;28;20041;-72
2022/03/27 05:43:07;;;;;;;0.40;0.40;;;3.50;99.90;;;;;;4990435;28;20532;-72
2022/03/27 05:45:35;;;;;;;2.60;2.40;;;3.50;99.90;;;;;;4990285;28;20096;-73
2022/03/27 05:48:01;;;;;;;0.45;0.45;;;3.50;99.90;;;;;;4987161;28;20042;-73
2022/03/27 05:50:26;;;;;;;0.50;0.50;;;3.50;99.90;;;;;;5005692;28;20045;-73
2022/03/27 05:52:53;;;;;;;0.47;0.47;;;3.50;99.90;;;;;;5006019;28;20093;-73
2022/03/27 05:55:20;;;;;;;0.40;0.40;;;3.40;99.90;;;;;;5008443;28;20042;-73
2022/03/27 05:57:47;;;;;;;0.40;0.40;;;3.50;99.90;;;;;;5006327;28;20042;-72
2022/03/27 06:00:16;;;;;;;0.50;0.50;;;3.50;99.90;;;;;;4985897;28;20051;-72
2022/03/27 06:02:41;;;;;;;0.38;0.38;;;3.50;99.90;;;;;;4996024;28;20033;-72
2022/03/27 06:05:08;;;;;;;0.40;0.40;;;3.40;99.90;;;;;;5009799;28;20544;-73
2022/03/27 06:07:41;;;;;;;0.43;0.43;;;3.40;99.90;;;;;;5009854;28;20077;-72
2022/03/27 06:10:07;;;;;;;0.43;0.43;;;3.50;99.90;;;;;;4994311;28;20049;-72
2022/03/27 06:12:33;;;;;;;0.40;0.40;;;3.50;99.90;;;;;;5010552;28;20135;-72
2022/03/27 06:14:59;;;;;;;0.50;0.50;;;3.50;99.90;;;;;;4993701;28;20513;-72
2022/03/27 06:17:25;;;;;;;0.57;0.57;;;3.50;99.90;;;;;;5009760;28;20091;-72
2022/03/27 06:19:50;;;;;;;0.40;0.40;;;3.60;99.90;;;;;;4992746;28;20037;-73
2022/03/27 06:22:16;;;;;;;0.30;0.30;;;3.70;99.90;;;;;;4993531;28;20037;-73
2022/03/27 06:24:41;;;;;;;0.50;0.50;;;3.80;99.90;;;;;;4993456;28;20542;-72
2022/03/27 06:27:07;;;;;;;0.47;0.47;;;4.00;99.90;;;;;;4993347;28;20054;-73
2022/03/27 06:29:33;;;;;;;0.38;0.38;;;4.20;99.90;;;;;;5009822;28;20409;-72
2022/03/27 06:31:58;;;;;;;0.40;0.40;;;4.40;99.90;;;;;;5009488;28;20034;-73
2022/03/27 06:34:26;;;;;;;0.40;0.40;;;4.40;99.90;;;;;;4993239;28;20038;-73
2022/03/27 06:36:52;;;;;;;0.50;0.50;;;4.40;99.90;;;;;;5009534;28;20505;-73
2022/03/27 06:39:17;;;;;;;0.95;0.95;;;4.40;99.90;;;;;;5007832;28;20049;-72
2022/03/27 06:41:43;;;;;;;0.40;0.40;;;4.40;99.90;;;;;;4993234;28;20046;-72
2022/03/27 06:44:09;;;;;;;0.50;0.50;;;4.50;99.90;;;;;;5009271;28;20474;-73
2022/03/27 06:46:34;;;;;;;0.50;0.50;;;4.60;99.90;;;;;;4993565;28;20064;-73
2022/03/27 06:49:00;;;;;;;2.40;2.20;;;4.70;99.90;;;;;;5009410;28;20068;-73
2022/03/27 06:51:26;;;;;;;0.50;0.50;;;4.80;99.90;;;;;;4992599;28;20034;-73
2022/03/27 06:53:51;;;;;;;0.40;0.40;;;5.00;99.90;;;;;;5006197;28;20038;-73
2022/03/27 06:56:17;;;;;;;0.40;0.40;;;5.10;99.90;;;;;;5006311;28;20029;-72
2022/03/27 06:58:42;;;;;;;0.40;0.40;;;5.30;99.90;;;;;;4993025;28;20069;-73
2022/03/27 07:04:12;;;;;;;4.82;0.77;;;5.60;99.90;;;;;;4936384;29;20389;-73
2022/03/27 07:06:42;;;;;;;1.70;1.30;;;5.80;99.90;;;;;;4913210;29;20067;-72
2022/03/27 07:09:08;;;;;;;17.45;3.67;;;5.90;99.90;;;;;;4930570;29;20055;-73
2022/03/27 07:11:34;;;;;;;2.42;1.77;;;6.00;99.90;;;;;;4909105;29;20191;-73
2022/03/27 07:14:00;;;;;;;4.53;3.03;;;6.20;99.90;;;;;;4911166;29;20534;-73
2022/03/27 07:16:26;;;;;;;0.98;0.90;;;6.20;99.90;;;;;;4924805;29;20051;-73
2022/03/27 07:18:52;;;;;;;8.98;2.13;;;6.40;99.90;;;;;;4911681;29;20483;-73
2022/03/27 07:21:18;;;;;;;0.32;0.32;;;6.50;99.90;;;;;;4927269;29;20601;-73
2022/03/27 07:23:44;;;;;;;26.77;8.63;;;6.70;99.90;;;;;;4929385;29;20122;-74
2022/03/27 07:26:10;;;;;;;1.08;0.73;;;6.80;99.90;;;;;;4914377;29;20056;-73
2022/03/27 07:28:36;;;;;;;8.00;1.98;;;7.00;99.90;;;;;;4914044;29;20673;-73
2022/03/27 07:31:02;;;;;;;4.82;1.42;;;7.10;99.90;;;;;;4927317;29;20048;-73
2022/03/27 07:33:28;;;;;;;0.95;0.73;;;7.20;99.90;;;;;;4910464;29;20293;-72
2022/03/27 07:35:55;;;;;;;5.78;2.55;;;7.30;99.90;;;;;;4983286;28;20054;-73
2022/03/27 07:38:21;;;;;;;0.85;0.85;;;7.40;99.90;;;;;;5007078;28;20064;-73
2022/03/27 07:40:47;;;;;;;0.95;0.95;;;7.60;99.90;;;;;;4991893;28;20050;-73
2022/03/27 07:43:13;;;;;;;6.90;2.40;;;7.60;99.90;;;;;;5008484;28;20054;-73
2022/03/27 07:45:39;;;;;;;1.85;1.13;;;7.70;99.90;;;;;;4987618;28;20056;-72
2022/03/27 07:48:05;;;;;;;0.30;0.30;;;7.80;99.90;;;;;;4979369;28;20046;-73
2022/03/27 07:50:31;;;;;;;11.57;3.08;;;7.90;99.90;;;;;;4991638;28;20062;-72
2022/03/27 07:52:59;;;;;;;1.92;1.75;;;8.00;99.90;;;;;;5008421;28;20401;-72
2022/03/27 07:55:25;;;;;;;1.73;1.52;;;8.30;99.90;;;;;;5003912;28;20049;-72
2022/03/27 07:57:51;;;;;;;3.05;2.15;;;8.50;99.90;;;;;;4991984;28;20041;-72
2022/03/27 08:00:17;;;;;;;0.30;0.30;;;8.60;99.90;;;;;;4991237;28;20049;-72
2022/03/27 08:02:44;;;;;;;12.60;4.15;;;8.70;99.90;;;;;;5004827;28;20069;-72
2022/03/27 08:05:10;;;;;;;14.20;2.28;;;8.70;99.90;;;;;;5003521;28;20065;-72
2022/03/27 08:07:36;;;;;;;18.60;3.38;;;8.70;99.90;;;;;;4991596;28;20077;-72
2022/03/27 08:10:02;;;;;;;19.23;5.20;;;8.70;99.90;;;;;;4991666;28;20073;-72
2022/03/27 08:12:28;;;;;;;1.05;0.85;;;8.60;99.90;;;;;;4991814;28;20104;-72
2022/03/27 08:14:54;;;;;;;30.23;3.13;;;8.70;99.90;;;;;;5006460;28;20409;-72
2022/03/27 08:17:20;;;;;;;2.53;1.75;;;8.70;99.90;;;;;;4994020;28;20030;-72
2022/03/27 08:19:47;;;;;;;2.65;2.33;;;8.80;99.90;;;;;;4989991;28;20033;-72
2022/03/27 08:22:13;;;;;;;5.50;4.32;;;9.00;99.90;;;;;;5007992;28;20133;-72
2022/03/27 08:24:40;;;;;;;8.98;1.48;;;9.10;99.90;;;;;;5006709;28;20145;-72
2022/03/27 08:27:07;;;;;;;3.75;3.20;;;9.30;99.90;;;;;;5007691;28;20056;-72
2022/03/27 08:29:41;;;;;;;8.98;3.08;;;9.40;99.90;;;;;;5007682;28;20049;-73
2022/03/27 08:32:12;;;;;;;13.65;2.83;;;9.50;99.90;;;;;;4989726;28;20053;-72
2022/03/27 08:34:39;;;;;;;20.20;4.60;;;9.50;99.90;;;;;;5014510;28;20046;-72
2022/03/27 08:37:08;;;;;;;23.00;5.57;;;9.50;99.90;;;;;;5008011;28;20049;-72
2022/03/27 08:39:35;;;;;;;17.00;3.53;;;9.60;99.90;;;;;;5007431;28;20498;-72
2022/03/27 08:42:01;;;;;;;5.63;3.40;;;9.60;99.90;;;;;;5004822;28;20402;-72
2022/03/27 08:44:28;;;;;;;16.90;3.47;;;9.60;99.90;;;;;;5005011;28;20045;-73
2022/03/27 08:46:55;;;;;;;12.82;3.05;;;9.70;99.90;;;;;;4990839;28;20092;-73
2022/03/27 08:49:41;;;;;;;4.18;2.17;;;9.90;99.90;;;;;;5023634;28;20056;-72
2022/03/27 08:52:23;;;;;;;19.63;3.83;;;9.90;99.90;;;;;;4991422;28;20405;-72
2022/03/27 08:55:01;;;;;;;13.48;2.10;;;9.90;99.90;;;;;;5021894;28;20041;-73
2022/03/27 08:57:45;;;;;;;10.40;3.83;;;9.90;99.90;;;;;;5005981;28;20061;-73
2022/03/27 09:00:13;;;;;;;13.10;2.72;;;10.30;99.90;;;;;;5007054;28;20041;-73
2022/03/27 09:02:42;;;;;;;13.85;4.55;;;11.10;99.90;;;;;;4991075;28;20042;-72
2022/03/27 09:05:08;;;;;;;14.93;3.10;;;11.90;99.90;;;;;;5006998;28;20044;-73
2022/03/27 09:07:34;;;;;;;20.27;3.38;;;12.50;99.90;;;;;;5004612;28;20152;-73
2022/03/27 09:10:06;;;;;;;16.98;4.25;;;13.10;99.90;;;;;;5005792;28;20078;-73
2022/03/27 09:12:34;;;;;;;7.20;3.20;;;13.30;99.90;;;;;;4990744;28;20038;-73
2022/03/27 09:15:00;;;;;;;3.35;2.40;;;13.50;99.90;;;;;;4990751;28;20048;-73
2022/03/27 09:17:25;;;;;;;4.68;2.88;;;13.80;99.90;;;;;;5007037;28;20042;-73
2022/03/27 09:19:52;;;;;;;8.07;2.58;;;14.20;99.90;;;;;;5007669;28;20048;-73
2022/03/27 09:22:21;;;;;;;0.68;0.63;;;14.40;99.90;;;;;;4982848;28;20410;-73
2022/03/27 09:24:55;;;;;;;17.85;3.80;;;14.60;99.90;;;;;;5002368;28;20058;-73
2022/03/27 09:27:32;;;;;;;1.58;1.05;;;14.70;99.90;;;;;;4999602;28;20084;-73
2022/03/27 09:30:07;;;;;;;4.97;1.65;;;14.80;99.90;;;;;;5015298;28;20042;-73
2022/03/27 09:32:36;;;;;;;1.63;0.98;;;15.10;99.90;;;;;;5006400;28;20084;-73
2022/03/27 09:35:09;;;;;;;6.60;2.03;;;15.30;99.90;;;;;;5007308;28;20081;-73
2022/03/27 09:37:41;;;;;;;5.82;2.20;;;15.50;99.90;;;;;;4991414;28;20038;-73
2022/03/27 09:40:08;;;;;;;7.03;6.53;;;15.70;99.90;;;;;;4995108;28;20077;-73
2022/03/27 09:42:37;;;;;;;7.13;2.17;;;15.80;99.90;;;;;;5009253;28;20284;-73
2022/03/27 09:45:15;;;;;;;24.23;9.25;;;15.90;99.90;;;;;;4994721;28;20052;-73
2022/03/27 09:47:43;;;;;;;8.60;4.05;;;15.90;98.10;;;;;;4994552;28;20038;-73
2022/03/27 09:50:35;;;;;;;4.85;1.50;;;15.80;99.60;;;;;;4994626;28;20046;-73
2022/03/27 09:53:22;;;;;;;15.65;3.15;;;15.70;99.00;;;;;;5007856;28;20221;-73
2022/03/27 09:55:58;;;;;;;12.85;2.80;;;15.80;97.60;;;;;;5008574;28;20049;-73
2022/03/27 09:58:43;;;;;;;0.80;0.75;;;15.50;96.40;;;;;;4994052;28;20519;-73
2022/03/27 10:01:16;;;;;;;2.20;1.30;;;15.30;99.40;;;;;;5010276;28;20049;-73
2022/03/27 10:04:02;;;;;;;5.07;1.55;;;15.50;99.90;;;;;;5010841;28;20088;-73
2022/03/27 10:06:38;;;;;;;5.43;2.72;;;15.60;98.40;;;;;;4994237;28;20041;-73
2022/03/27 10:09:14;;;;;;;15.18;2.88;;;15.70;99.50;;;;;;5010034;28;20125;-73
2022/03/27 10:11:43;;;;;;;12.95;2.60;;;15.70;97.70;;;;;;4994157;28;20458;-73
2022/03/27 10:14:09;;;;;;;5.35;1.80;;;15.60;96.90;;;;;;5009002;28;20088;-73
2022/03/27 10:16:46;;;;;;;12.25;3.15;;;15.50;96.90;;;;;;5010681;28;20493;-72
2022/03/27 10:19:34;;;;;;;8.13;2.83;;;15.50;93.10;;;;;;4986395;28;20076;-72
2022/03/27 10:22:02;;;;;;;7.05;3.25;;;15.20;91.80;;;;;;4992530;28;20498;-72
2022/03/27 10:24:32;;;;;;;11.43;2.72;;;14.90;92.20;;;;;;5026736;28;20057;-72
2022/03/27 10:27:02;;;;;;;0.40;0.40;;;14.70;93.10;;;;;;5001368;28;20054;-71
2022/03/27 10:29:29;;;;;;;18.02;3.88;;;14.40;92.70;;;;;;5008017;28;20034;-71
2022/03/27 10:31:57;;;;;;;4.47;2.75;;;14.30;94.00;;;;;;5022921;28;20041;-72
2022/03/27 10:34:23;;;;;;;5.03;1.30;;;14.20;96.10;;;;;;5024629;28;20164;-71
2022/03/27 10:37:17;;;;;;;9.18;3.38;;;14.30;95.40;;;;;;5009468;28;20046;-71
2022/03/27 10:39:57;;;;;;;12.57;2.83;;;14.30;96.20;;;;;;5015796;28;20050;-73
2022/03/27 10:42:51;;;;;;;21.65;4.00;;;14.30;96.80;;;;;;5008179;28;20399;-72
2022/03/27 10:45:19;;;;;;;9.18;2.20;;;14.30;96.70;;;;;;5007845;28;20037;-72
2022/03/27 10:48:12;;;;;;;5.22;0.98;;;14.40;94.80;;;;;;5026246;28;20125;-72
2022/03/27 10:51:04;;;;;;;1.50;0.90;;;14.30;95.80;;;;;;4994337;28;20046;-72
2022/03/27 10:53:30;;;;;;;9.85;2.42;;;14.40;96.40;;;;;;4992796;28;20444;-72
2022/03/27 10:55:58;;;;;;;12.23;3.05;;;14.70;92.70;;;;;;4993306;28;20080;-72
2022/03/27 10:58:29;;;;;;;11.82;3.28;;;14.70;90.30;;;;;;5010281;28;20575;-72
2022/03/27 11:00:55;;;;;;;7.85;2.67;;;14.50;87.70;;;;;;4993305;28;20054;-72
2022/03/27 11:03:43;;;;;;;4.15;1.65;;;14.30;84.30;;;;;;5026589;28;20539;-72
2022/03/27 11:06:27;;;;;;;7.45;2.15;;;14.20;89.00;;;;;;5005869;28;20042;-72
2022/03/27 11:08:54;;;;;;;4.57;1.67;;;14.40;86.50;;;;;;5009904;28;20068;-72
2022/03/27 11:11:35;;;;;;;8.00;2.10;;;14.40;85.10;;;;;;4991832;28;20524;-72
2022/03/27 11:14:02;;;;;;;3.90;1.25;;;14.40;85.00;;;;;;5001195;28;20070;-71
2022/03/27 11:16:28;;;;;;;5.05;1.70;;;14.40;89.80;;;;;;4991879;28;20517;-71
2022/03/27 11:18:53;;;;;;;11.05;2.60;;;14.60;84.90;;;;;;5009222;28;20080;-71
2022/03/27 11:21:45;;;;;;;18.38;3.33;;;14.80;87.40;;;;;;4992729;28;20048;-71
2022/03/27 11:24:10;;;;;;;5.43;1.27;;;15.00;88.60;;;;;;4990924;28;20085;-71
2022/03/27 11:26:37;;;;;;;8.82;2.03;;;15.10;78.40;;;;;;4996181;28;20481;-72
2022/03/27 11:29:20;;;;;;;6.20;2.17;;;15.00;79.00;;;;;;4977282;28;20041;-72
2022/03/27 11:32:07;;;;;;;5.75;1.73;;;15.10;77.50;;;;;;4993880;28;20116;-72
2022/03/27 11:34:32;;;;;;;10.55;2.40;;;15.30;82.50;;;;;;5009518;28;20725;-72
2022/03/27 11:37:11;;;;;;;2.30;1.55;;;15.40;75.30;;;;;;4992774;28;20057;-72
2022/03/27 11:39:37;;;;;;;5.93;1.83;;;15.40;75.80;;;;;;5009643;28;20112;-71
2022/03/27 11:42:23;;;;;;;8.73;2.55;;;15.50;75.50;;;;;;5005240;28;20049;-72
2022/03/27 11:45:08;;;;;;;6.40;2.08;;;15.60;68.00;;;;;;4994839;28;20485;-72
2022/03/27 11:47:36;;;;;;;8.88;2.33;;;15.50;68.90;;;;;;5011468;28;20080;-71
2022/03/27 11:50:03;;;;;;;4.55;1.95;;;15.50;66.30;;;;;;5004464;28;20045;-72
2022/03/27 11:52:29;;;;;;;8.38;1.98;;;15.40;64.30;;;;;;4995811;28;20917;-72
2022/03/27 11:55:11;;;;;;;6.22;2.13;;;15.30;61.40;;;;;;4994907;28;20132;-71
2022/03/27 11:57:46;;;;;;;8.95;2.53;;;15.20;59.80;;;;;;4992310;28;20514;-72
2022/03/27 12:00:15;;;;;;;13.63;1.83;;;15.20;59.30;;;;;;4986432;28;20439;-72
2022/03/27 12:02:43;;;;;;;12.30;1.02;;;15.10;59.60;;;;;;5010058;28;20489;-72
2022/03/27 12:05:11;;;;;;;4.88;2.50;;;15.00;60.90;;;;;;4988789;28;20041;-71
2022/03/27 12:07:55;;;;;;;5.57;1.58;;;15.00;60.70;;;;;;5011232;28;20488;-72
2022/03/27 12:10:21;;;;;;;4.43;1.17;;;15.10;60.00;;;;;;5023976;28;20045;-72
2022/03/27 12:13:07;;;;;;;5.43;1.42;;;15.10;59.50;;;;;;5010941;28;20057;-71
2022/03/27 12:15:53;;;;;;;3.20;1.98;;;15.10;58.90;;;;;;5011318;28;20438;-72
2022/03/27 12:18:40;;;;;;;8.65;2.55;;;15.20;59.90;;;;;;5011502;28;20048;-71
2022/03/27 12:21:09;;;;;;;5.05;1.50;;;15.20;59.30;;;;;;4992180;28;20052;-72
2022/03/27 12:23:49;;;;;;;0.90;0.90;;;15.30;61.50;;;;;;5011182;28;20124;-72
2022/03/27 12:32:14;;;;;;;0.82;0.68;;;15.70;62.60;;;;;;5019115;28;20091;-72
2022/03/27 12:34:43;;;;;;;4.28;1.27;;;15.90;59.70;;;;;;5010509;28;20043;-72
2022/03/27 12:37:18;;;;;;;4.43;1.48;;;15.70;57.30;;;;;;5007876;28;20128;-72
2022/03/27 12:39:50;;;;;;;9.02;1.90;;;15.70;59.80;;;;;;5011079;28;20079;-72
2022/03/27 12:42:35;;;;;;;10.82;1.85;;;15.70;58.30;;;;;;5009585;28;20501;-72
2022/03/27 12:45:07;;;;;;;2.67;1.25;;;15.80;57.50;;;;;;5008278;28;20491;-72
2022/03/27 12:47:39;;;;;;;14.90;2.15;;;15.60;59.10;;;;;;5009496;28;20053;-72
2022/03/27 12:50:07;;;;;;;5.28;1.15;;;15.50;57.60;;;;;;4993125;28;20172;-72
2022/03/27 12:52:32;;;;;;;2.80;1.05;;;15.50;58.80;;;;;;4994301;28;20140;-72
2022/03/27 12:55:05;;;;;;;1.23;1.08;;;15.50;61.10;;;;;;4994226;28;20037;-72
2022/03/27 12:57:58;;;;;;;5.07;0.85;;;15.70;59.90;;;;;;5010811;28;20060;-73
2022/03/27 13:00:32;;;;;;;5.40;1.17;;;15.80;58.70;;;;;;4993443;28;20083;-72
2022/03/27 13:03:15;;;;;;;1.48;1.00;;;15.80;57.80;;;;;;4993115;28;20085;-73
2022/03/27 13:06:02;;;;;;;4.88;2.53;;;15.70;58.90;;;;;;5022936;28;20126;-73
2022/03/27 13:08:37;;;;;;;0.10;0.10;;;15.70;59.80;;;;;;4999022;28;20100;-73
2022/03/27 13:11:10;;;;;;;6.63;2.10;;;15.80;60.80;;;;;;5004141;28;20038;-73
2022/03/27 13:13:37;;;;;;;0.35;0.35;;;15.90;58.00;;;;;;4975280;28;20446;-73